Time;durP1;ratioP1;P1;durP2;ratioP2;P2;SDS_P1;SDS_P2;PMS_P1;PMS_P2;Temp;Humidity;BMP_temperature;BMP_pressure;BME280_temperature;BME280_humidity;BME280_pressure;Samples;Min_cycle;Max_cycle;Signal;HPM_P1;HPM_P2
2022/03/13 00:02:12;;;;;;;18.30;12.52;;;8.90;99.90;;;;;;5032261;28;20033;-70
2022/03/13 00:04:39;;;;;;;19.45;13.65;;;9.00;99.90;;;;;;5032467;28;20041;-70
2022/03/13 00:07:18;;;;;;;20.65;13.65;;;8.80;99.90;;;;;;5032622;28;20450;-70
2022/03/13 00:09:51;;;;;;;17.98;12.40;;;8.80;99.90;;;;;;5031949;28;20052;-69
2022/03/13 00:12:31;;;;;;;20.38;12.85;;;8.50;99.90;;;;;;5032176;28;20124;-70
2022/03/13 00:14:59;;;;;;;18.95;13.48;;;8.70;99.90;;;;;;5032252;28;20122;-70
2022/03/13 00:17:29;;;;;;;20.23;14.35;;;8.60;99.90;;;;;;5032078;28;20045;-70
2022/03/13 00:20:02;;;;;;;18.95;13.43;;;8.70;99.90;;;;;;5031767;28;20092;-70
2022/03/13 00:22:30;;;;;;;21.98;14.10;;;8.80;99.90;;;;;;5032352;28;20041;-69
2022/03/13 00:24:56;;;;;;;24.77;14.75;;;8.80;99.90;;;;;;5032012;28;20047;-70
2022/03/13 00:27:22;;;;;;;19.45;13.80;;;8.80;99.90;;;;;;5031940;28;20120;-70
2022/03/13 00:29:48;;;;;;;20.02;13.57;;;8.60;99.90;;;;;;5031649;28;20042;-70
2022/03/13 00:32:14;;;;;;;23.30;14.18;;;8.70;99.90;;;;;;5015220;28;20041;-70
2022/03/13 00:34:40;;;;;;;18.65;13.13;;;8.70;99.90;;;;;;5015386;28;20042;-70
2022/03/13 00:37:05;;;;;;;21.42;14.27;;;8.50;99.90;;;;;;5031717;28;20499;-70
2022/03/13 00:39:31;;;;;;;22.40;14.15;;;8.70;99.90;;;;;;5031730;28;20048;-70
2022/03/13 00:41:57;;;;;;;21.17;13.77;;;;;;;;;;5031861;28;20043;-69
2022/03/13 00:44:22;;;;;;;22.13;14.07;;;8.60;99.90;;;;;;5032984;28;20033;-70
2022/03/13 00:46:48;;;;;;;21.50;13.02;;;;;;;;;;5031861;28;20037;-70
2022/03/13 00:49:14;;;;;;;20.95;14.13;;;;;;;;;;5014964;28;20049;-69
2022/03/13 00:51:40;;;;;;;20.65;14.30;;;;;;;;;;5031434;28;20131;-70
2022/03/13 00:54:06;;;;;;;24.08;15.25;;;;;;;;;;5031469;28;20049;-70
2022/03/13 00:56:32;;;;;;;24.33;14.20;;;8.40;99.90;;;;;;5031605;28;20046;-70
2022/03/13 00:58:58;;;;;;;20.40;13.73;;;8.40;99.90;;;;;;5031121;28;20487;-70
2022/03/13 01:01:24;;;;;;;22.42;14.50;;;8.60;99.90;;;;;;5014569;28;20037;-69
2022/03/13 01:03:53;;;;;;;22.77;14.93;;;8.50;99.90;;;;;;5031280;28;20116;-70
2022/03/13 01:06:20;;;;;;;20.35;14.55;;;8.60;99.90;;;;;;5031239;28;20041;-70
2022/03/13 01:08:47;;;;;;;18.92;14.32;;;8.60;99.90;;;;;;5014662;28;20045;-69
2022/03/13 01:11:15;;;;;;;22.05;14.77;;;8.50;99.90;;;;;;5032088;28;20104;-70
2022/03/13 01:13:41;;;;;;;20.98;13.75;;;8.70;99.90;;;;;;5031092;28;20072;-70
2022/03/13 01:16:16;;;;;;;22.40;14.35;;;8.70;99.90;;;;;;5030918;28;20452;-70
2022/03/13 01:18:48;;;;;;;21.10;14.00;;;8.50;99.90;;;;;;5030896;28;20076;-70
2022/03/13 01:21:14;;;;;;;26.10;15.13;;;8.50;99.90;;;;;;5030726;28;20084;-70
2022/03/13 01:23:41;;;;;;;22.95;15.68;;;;;;;;;;5030850;28;20034;-70
2022/03/13 01:26:31;;;;;;;22.95;14.75;;;8.70;99.90;;;;;;5030858;28;20041;-70
2022/03/13 01:28:59;;;;;;;22.17;15.00;;;8.60;99.90;;;;;;5007055;28;20064;-70
2022/03/13 01:31:29;;;;;;;21.45;15.07;;;8.60;99.90;;;;;;5014212;28;20083;-70
2022/03/13 01:33:56;;;;;;;23.00;14.60;;;8.70;99.90;;;;;;5030789;28;20043;-70
2022/03/13 01:36:22;;;;;;;23.42;14.30;;;;;;;;;;5030679;28;20053;-70
2022/03/13 01:38:52;;;;;;;20.70;14.65;;;8.60;99.90;;;;;;5030625;28;20411;-69
2022/03/13 01:41:17;;;;;;;20.88;13.05;;;8.70;99.90;;;;;;5030331;28;20038;-70
2022/03/13 01:43:43;;;;;;;20.20;13.98;;;8.60;99.90;;;;;;5030595;28;20190;-70
2022/03/13 01:46:09;;;;;;;28.02;14.90;;;;;;;;;;5030587;28;20044;-70
2022/03/13 01:48:50;;;;;;;23.08;14.45;;;8.60;99.90;;;;;;5030555;28;20041;-70
2022/03/13 01:51:16;;;;;;;21.10;14.38;;;8.60;99.90;;;;;;5030665;28;20068;-70
2022/03/13 01:53:42;;;;;;;22.73;14.18;;;8.80;99.90;;;;;;5030628;28;20380;-70
2022/03/13 01:56:08;;;;;;;22.13;14.35;;;8.60;99.90;;;;;;5030386;28;20128;-70
2022/03/13 01:58:34;;;;;;;19.45;13.70;;;;;;;;;;5030515;28;20199;-70
2022/03/13 02:01:01;;;;;;;22.50;14.00;;;8.70;99.90;;;;;;5057815;22;20072;-66
2022/03/13 02:03:27;;;;;;;21.52;14.10;;;8.70;99.90;;;;;;5050333;28;20499;-67
2022/03/13 02:05:53;;;;;;;22.75;13.60;;;8.70;99.90;;;;;;5051465;28;20044;-66
2022/03/13 02:08:21;;;;;;;22.60;14.15;;;8.70;99.90;;;;;;5051258;28;20051;-66
2022/03/13 02:10:46;;;;;;;21.35;15.23;;;8.70;99.90;;;;;;5051302;28;20082;-69
2022/03/13 02:13:19;;;;;;;22.17;14.57;;;8.70;99.90;;;;;;5051197;28;20041;-66
2022/03/13 02:15:45;;;;;;;22.13;13.45;;;8.60;99.90;;;;;;5051433;28;20139;-66
2022/03/13 02:18:10;;;;;;;20.65;14.02;;;8.50;99.90;;;;;;5051326;28;20064;-66
2022/03/13 02:20:54;;;;;;;22.77;14.85;;;8.70;99.90;;;;;;5050865;28;20041;-66
2022/03/13 02:23:25;;;;;;;20.20;13.60;;;8.80;99.90;;;;;;5049863;28;20033;-66
2022/03/13 02:25:55;;;;;;;24.17;15.48;;;8.70;99.90;;;;;;5051222;28;20395;-67
2022/03/13 02:28:23;;;;;;;24.40;15.70;;;8.60;99.90;;;;;;5051240;28;20131;-66
2022/03/13 02:30:50;;;;;;;21.63;14.63;;;8.70;99.90;;;;;;5049809;28;20041;-67
2022/03/13 02:33:19;;;;;;;20.23;13.68;;;8.70;99.90;;;;;;5049764;28;20033;-67
2022/03/13 02:35:59;;;;;;;20.00;14.30;;;8.60;99.90;;;;;;5054591;28;20076;-67
2022/03/13 02:38:26;;;;;;;19.80;13.38;;;8.60;99.90;;;;;;5055094;28;20048;-67
2022/03/13 02:40:53;;;;;;;21.58;14.55;;;8.70;99.90;;;;;;5054615;28;20061;-66
2022/03/13 02:43:19;;;;;;;18.75;14.00;;;8.50;99.90;;;;;;5053499;28;20414;-66
2022/03/13 02:45:44;;;;;;;22.25;14.40;;;8.70;99.90;;;;;;5053750;28;20052;-68
2022/03/13 02:48:11;;;;;;;26.80;14.23;;;8.70;99.90;;;;;;5053674;28;20495;-66
2022/03/13 02:50:38;;;;;;;21.45;14.32;;;8.50;99.90;;;;;;5053026;28;20168;-67
2022/03/13 02:53:09;;;;;;;20.40;13.93;;;8.60;99.90;;;;;;5055044;28;20036;-66
2022/03/13 02:55:35;;;;;;;23.55;14.10;;;8.60;99.90;;;;;;5036685;28;20437;-67
2022/03/13 02:58:01;;;;;;;25.50;15.15;;;8.70;99.90;;;;;;5053038;28;20128;-67
2022/03/13 03:00:48;;;;;;;21.08;14.25;;;8.50;99.90;;;;;;5053965;28;20108;-66
2022/03/13 03:03:16;;;;;;;21.20;14.55;;;8.70;99.90;;;;;;5053246;28;20049;-66
2022/03/13 03:05:42;;;;;;;23.63;14.18;;;;;;;;;;5053167;28;20123;-67
2022/03/13 03:08:08;;;;;;;24.27;15.05;;;8.70;99.90;;;;;;5054602;28;20116;-67
2022/03/13 03:10:36;;;;;;;20.35;13.25;;;8.70;99.90;;;;;;5052920;28;20183;-68
2022/03/13 03:13:01;;;;;;;21.30;14.20;;;8.60;99.90;;;;;;5052537;28;20414;-66
2022/03/13 03:15:27;;;;;;;20.67;13.52;;;8.40;99.90;;;;;;5054500;28;20036;-66
2022/03/13 03:17:53;;;;;;;18.75;12.90;;;8.60;99.90;;;;;;5052726;28;20041;-66
2022/03/13 03:20:19;;;;;;;17.13;12.05;;;8.70;99.90;;;;;;5052555;28;20037;-66
2022/03/13 03:22:47;;;;;;;24.30;14.05;;;8.70;99.90;;;;;;5052801;28;20509;-66
2022/03/13 03:25:12;;;;;;;24.27;14.30;;;8.70;99.90;;;;;;5053914;28;20593;-68
2022/03/13 03:27:41;;;;;;;23.05;13.38;;;8.60;99.90;;;;;;5054325;28;20152;-65
2022/03/13 03:30:08;;;;;;;20.23;12.80;;;8.70;99.90;;;;;;5052536;28;20037;-68
2022/03/13 03:32:33;;;;;;;21.70;14.07;;;8.70;99.90;;;;;;5052836;28;20132;-66
2022/03/13 03:34:59;;;;;;;19.88;13.45;;;8.70;99.90;;;;;;5052807;28;20131;-67
2022/03/13 03:37:25;;;;;;;21.08;13.55;;;8.70;99.90;;;;;;5052694;28;20048;-66
2022/03/13 03:39:51;;;;;;;20.10;12.50;;;8.70;99.90;;;;;;5053476;28;20083;-66
2022/03/13 03:42:16;;;;;;;19.23;12.73;;;8.60;99.90;;;;;;5052439;28;20445;-67
2022/03/13 03:44:42;;;;;;;18.80;13.10;;;8.70;99.90;;;;;;5051966;28;20037;-66
2022/03/13 03:47:07;;;;;;;16.92;11.73;;;8.70;99.90;;;;;;5035680;28;20045;-68
2022/03/13 03:49:34;;;;;;;20.17;12.57;;;8.80;99.90;;;;;;5052112;28;20036;-66
2022/03/13 03:52:00;;;;;;;19.75;13.57;;;8.60;99.90;;;;;;5052195;28;20047;-66
2022/03/13 03:54:25;;;;;;;19.25;12.52;;;8.80;99.90;;;;;;5053420;28;20041;-66
2022/03/13 03:56:51;;;;;;;22.13;12.75;;;8.70;99.90;;;;;;5052225;28;20406;-66
2022/03/13 03:59:19;;;;;;;20.70;12.43;;;8.70;99.90;;;;;;5052326;28;20064;-67
2022/03/13 04:01:44;;;;;;;20.75;13.48;;;8.70;99.90;;;;;;5053201;28;20563;-67
2022/03/13 04:04:10;;;;;;;21.88;13.50;;;8.60;99.90;;;;;;5052123;28;20041;-66
2022/03/13 04:06:38;;;;;;;18.75;13.30;;;8.50;99.90;;;;;;5051997;28;20041;-66
2022/03/13 04:09:07;;;;;;;21.13;13.95;;;8.60;99.90;;;;;;5051845;28;20045;-66
2022/03/13 04:11:33;;;;;;;19.02;12.98;;;8.40;99.90;;;;;;5035238;28;20041;-67
2022/03/13 04:14:00;;;;;;;18.00;12.52;;;8.40;99.90;;;;;;5052063;28;20048;-67
2022/03/13 04:16:26;;;;;;;22.88;14.10;;;8.50;99.90;;;;;;5053152;28;20036;-65
2022/03/13 04:18:51;;;;;;;16.70;12.30;;;8.50;99.90;;;;;;5052797;28;20098;-67
2022/03/13 04:21:17;;;;;;;23.10;14.40;;;8.40;99.90;;;;;;5051801;28;20069;-66
2022/03/13 04:23:43;;;;;;;20.00;13.68;;;8.40;99.90;;;;;;5051778;28;20037;-66
2022/03/13 04:26:09;;;;;;;24.23;13.07;;;8.60;99.90;;;;;;5052509;28;20128;-66
2022/03/13 04:28:35;;;;;;;22.65;12.77;;;8.40;99.90;;;;;;5053469;28;20045;-66
2022/03/13 04:31:00;;;;;;;20.67;12.60;;;8.50;99.90;;;;;;5052579;28;20487;-67
2022/03/13 04:33:33;;;;;;;22.70;14.48;;;8.40;99.90;;;;;;5052946;28;20032;-69
2022/03/13 04:36:00;;;;;;;19.08;13.23;;;;;;;;;;5051477;28;20041;-68
2022/03/13 04:38:27;;;;;;;23.13;13.52;;;8.40;99.90;;;;;;5052895;28;20045;-66
2022/03/13 04:40:54;;;;;;;18.88;12.50;;;8.40;99.90;;;;;;5052395;28;20494;-67
2022/03/13 04:43:21;;;;;;;20.50;13.38;;;8.40;99.90;;;;;;5051461;28;20029;-66
2022/03/13 04:45:47;;;;;;;17.90;12.02;;;8.40;99.90;;;;;;5051645;28;20396;-66
2022/03/13 04:48:13;;;;;;;21.25;13.93;;;8.40;99.90;;;;;;5051254;28;20048;-66
2022/03/13 04:50:38;;;;;;;25.48;13.85;;;8.20;99.90;;;;;;5050867;28;20037;-66
2022/03/13 04:53:04;;;;;;;20.17;13.40;;;8.20;99.90;;;;;;5051037;28;20044;-66
2022/03/13 04:55:30;;;;;;;23.38;14.10;;;8.30;99.90;;;;;;5052372;28;20143;-67
2022/03/13 04:57:55;;;;;;;21.52;14.65;;;8.30;99.90;;;;;;5050117;28;20090;-66
2022/03/13 05:00:22;;;;;;;20.58;13.93;;;8.20;99.90;;;;;;5052133;28;20040;-66
2022/03/13 05:02:48;;;;;;;25.35;13.88;;;8.10;99.90;;;;;;5050826;28;20115;-67
2022/03/13 05:05:13;;;;;;;20.50;13.90;;;8.20;99.90;;;;;;5050847;28;20131;-66
2022/03/13 05:07:39;;;;;;;23.67;14.98;;;8.10;99.90;;;;;;5050830;28;20068;-66
2022/03/13 05:10:06;;;;;;;23.35;15.32;;;8.10;99.90;;;;;;5051793;28;20048;-67
2022/03/13 05:12:32;;;;;;;24.35;15.23;;;8.10;99.90;;;;;;5050678;28;20453;-66
2022/03/13 05:14:58;;;;;;;21.27;15.00;;;8.20;99.90;;;;;;5052044;28;20116;-66
2022/03/13 05:17:23;;;;;;;24.48;14.57;;;8.00;99.90;;;;;;5050462;28;20483;-66
2022/03/13 05:19:49;;;;;;;22.20;14.85;;;8.10;99.90;;;;;;5050450;28;20037;-66
2022/03/13 05:22:15;;;;;;;20.85;14.73;;;8.10;99.90;;;;;;5050271;28;20124;-67
2022/03/13 05:24:40;;;;;;;24.83;15.65;;;8.00;99.90;;;;;;5050793;28;20036;-66
2022/03/13 05:27:07;;;;;;;22.92;15.00;;;;;;;;;;5051882;28;20506;-67
2022/03/13 05:29:32;;;;;;;22.33;14.63;;;8.00;99.90;;;;;;5050185;28;20533;-66
2022/03/13 05:31:58;;;;;;;22.42;14.20;;;8.00;99.90;;;;;;5050604;28;20072;-66
2022/03/13 05:34:24;;;;;;;24.20;15.55;;;;;;;;;;5051523;28;20052;-68
2022/03/13 05:36:50;;;;;;;24.13;15.63;;;;;;;;;;5050531;28;20041;-68
2022/03/13 05:39:16;;;;;;;23.20;14.68;;;;;;;;;;5050330;28;20485;-68
2022/03/13 05:41:42;;;;;;;22.73;15.38;;;;;;;;;;5051786;28;20068;-66
2022/03/13 05:44:09;;;;;;;25.00;14.98;;;;;;;;;;5051667;28;20044;-67
2022/03/13 05:46:35;;;;;;;25.20;14.57;;;;;;;;;;5050144;28;20045;-65
2022/03/13 05:49:02;;;;;;;21.25;15.05;;;;;;;;;;5051203;28;20052;-67
2022/03/13 05:51:28;;;;;;;23.35;16.13;;;;;;;;;;5051690;28;20124;-67
2022/03/13 05:53:54;;;;;;;19.77;15.02;;;;;;;;;;5050021;28;20576;-67
2022/03/13 05:56:19;;;;;;;21.02;14.57;;;;;;;;;;5051463;28;20041;-67
2022/03/13 05:58:45;;;;;;;22.40;14.68;;;;;;;;;;5051200;28;20486;-67
2022/03/13 06:01:11;;;;;;;21.90;15.45;;;;;;;;;;5049495;28;20482;-67
2022/03/13 06:03:38;;;;;;;24.60;15.45;;;;;;;;;;5050145;28;20380;-67
2022/03/13 06:06:04;;;;;;;22.63;15.27;;;8.00;99.90;;;;;;5050193;28;20112;-67
2022/03/13 06:08:31;;;;;;;24.48;15.93;;;7.90;99.90;;;;;;5051775;28;20041;-67
2022/03/13 06:11:00;;;;;;;25.67;16.05;;;;;;;;;;5053804;28;20491;-66
2022/03/13 06:13:26;;;;;;;20.70;14.88;;;;;;;;;;5055379;28;20037;-69
2022/03/13 06:15:52;;;;;;;24.92;15.18;;;;;;;;;;5055355;28;20115;-69
2022/03/13 06:18:18;;;;;;;23.73;14.60;;;;;;;;;;5053887;28;20157;-66
2022/03/13 06:20:44;;;;;;;22.42;14.85;;;;;;;;;;5053557;28;20037;-66
2022/03/13 06:23:13;;;;;;;23.88;15.30;;;;;;;;;;5054182;28;20068;-66
2022/03/13 06:25:39;;;;;;;24.88;15.25;;;;;;;;;;5055168;28;20045;-67
2022/03/13 06:28:05;;;;;;;23.23;14.52;;;;;;;;;;5037208;28;20483;-67
2022/03/13 06:30:31;;;;;;;22.10;15.20;;;;;;;;;;5054687;28;20040;-67
2022/03/13 06:32:57;;;;;;;23.48;15.77;;;;;;;;;;5053977;28;20044;-68
2022/03/13 06:35:24;;;;;;;24.38;15.13;;;;;;;;;;5053634;28;20510;-68
2022/03/13 06:37:54;;;;;;;23.58;15.20;;;8.00;99.90;;;;;;5037106;28;20045;-67
2022/03/13 06:40:22;;;;;;;22.00;15.57;;;7.80;99.90;;;;;;5054628;28;20045;-66
2022/03/13 06:42:51;;;;;;;21.83;15.07;;;7.90;99.90;;;;;;5053821;28;20395;-67
2022/03/13 06:45:17;;;;;;;22.25;15.50;;;7.90;99.90;;;;;;5054717;28;20047;-66
2022/03/13 06:47:47;;;;;;;25.48;16.27;;;7.80;99.90;;;;;;5053455;28;20517;-66
2022/03/13 06:50:14;;;;;;;24.88;15.80;;;7.70;99.90;;;;;;5053293;28;20048;-66
2022/03/13 06:52:41;;;;;;;24.88;16.20;;;7.80;99.90;;;;;;5054602;28;20041;-67
2022/03/13 06:55:07;;;;;;;26.75;16.83;;;;;;;;;;5053212;28;20119;-67
2022/03/13 06:57:33;;;;;;;24.27;15.25;;;8.00;99.90;;;;;;5053309;28;20604;-66
2022/03/13 07:00:00;;;;;;;25.45;14.30;;;8.00;99.90;;;;;;5052873;28;20052;-66
2022/03/13 07:02:26;;;;;;;23.60;15.88;;;;;;;;;;5052524;28;20039;-66
2022/03/13 07:04:52;;;;;;;23.30;16.20;;;;;;;;;;5051534;28;20619;-66
2022/03/13 07:07:18;;;;;;;23.88;16.27;;;8.00;99.90;;;;;;5053936;28;20107;-66
2022/03/13 07:09:44;;;;;;;24.38;15.05;;;;;;;;;;5067345;28;20561;-66
2022/03/13 07:12:11;;;;;;;23.13;15.30;;;;;;;;;;5069898;28;20049;-66
2022/03/13 07:14:45;;;;;;;21.48;15.15;;;7.80;99.90;;;;;;5069829;28;20077;-64
2022/03/13 07:17:11;;;;;;;22.52;15.07;;;;;;;;;;5054901;28;20926;-63
2022/03/13 07:19:37;;;;;;;21.75;14.80;;;;;;;;;;5058638;28;20040;-66
2022/03/13 07:22:04;;;;;;;22.35;15.10;;;;;;;;;;5061847;28;20579;-66
2022/03/13 07:24:30;;;;;;;24.77;15.30;;;;;;;;;;5069746;28;20155;-67
2022/03/13 07:26:56;;;;;;;25.65;13.27;;;;;;;;;;5071299;28;20394;-65
2022/03/13 07:29:21;;;;;;;22.48;15.38;;;;;;;;;;5046113;28;20045;-63
2022/03/13 07:31:47;;;;;;;22.45;15.02;;;;;;;;;;5058028;28;20036;-65
2022/03/13 07:34:14;;;;;;;25.00;14.65;;;;;;;;;;5064640;28;20506;-66
2022/03/13 07:36:39;;;;;;;23.20;14.73;;;;;;;;;;5069229;28;20075;-67
2022/03/13 07:39:05;;;;;;;23.42;14.05;;;;;;;;;;5069165;28;20506;-66
2022/03/13 07:41:33;;;;;;;22.25;13.77;;;;;;;;;;5046079;28;20495;-64
2022/03/13 07:43:59;;;;;;;17.75;13.18;;;;;;;;;;5046078;28;20087;-63
2022/03/13 07:46:25;;;;;;;20.30;13.45;;;;;;;;;;5037598;28;20049;-64
2022/03/13 07:48:51;;;;;;;21.65;14.70;;;;;;;;;;5045637;28;20462;-64
2022/03/13 07:51:17;;;;;;;20.05;14.00;;;;;;;;;;5046122;28;20041;-66
2022/03/13 07:53:43;;;;;;;22.45;14.73;;;8.20;99.90;;;;;;5050590;28;20131;-66
2022/03/13 07:56:08;;;;;;;18.75;12.95;;;8.20;99.90;;;;;;5043832;28;20128;-64
2022/03/13 07:58:34;;;;;;;21.52;14.70;;;;;;;;;;5068863;28;20076;-66
2022/03/13 08:01:00;;;;;;;19.02;13.07;;;;;;;;;;5091799;22;20093;-69
2022/03/13 08:03:29;;;;;;;18.60;13.07;;;;;;;;;;5031358;28;20044;-70
2022/03/13 08:05:55;;;;;;;21.20;13.25;;;8.40;99.90;;;;;;5050376;28;20103;-70
2022/03/13 08:08:21;;;;;;;21.98;13.60;;;;;;;;;;5051091;28;20079;-69
2022/03/13 08:10:47;;;;;;;19.65;13.13;;;;;;;;;;5053022;28;20040;-70
2022/03/13 08:13:13;;;;;;;18.77;13.35;;;;;;;;;;5063052;28;20043;-69
2022/03/13 08:15:39;;;;;;;20.38;13.60;;;8.40;99.90;;;;;;5066509;28;20106;-69
2022/03/13 08:18:05;;;;;;;18.55;12.95;;;;;;;;;;5043948;28;20192;-69
2022/03/13 08:20:31;;;;;;;20.33;13.68;;;;;;;;;;5037907;28;20383;-69
2022/03/13 08:22:57;;;;;;;20.45;13.05;;;;;;;;;;5038998;28;20043;-69
2022/03/13 08:25:25;;;;;;;20.30;13.77;;;;;;;;;;5038181;28;20127;-70
2022/03/13 08:27:50;;;;;;;19.00;13.52;;;8.70;99.90;;;;;;5037869;28;20038;-70
2022/03/13 08:30:16;;;;;;;21.77;14.23;;;;;;;;;;5032636;28;20052;-69
2022/03/13 08:32:42;;;;;;;21.13;14.57;;;;;;;;;;5034665;28;20415;-70
2022/03/13 08:35:09;;;;;;;17.20;12.40;;;8.80;99.90;;;;;;5033751;28;20052;-69
2022/03/13 08:37:36;;;;;;;18.13;12.50;;;8.80;99.90;;;;;;5049868;28;20032;-70
2022/03/13 08:40:03;;;;;;;21.17;14.32;;;;;;;;;;5047545;28;20041;-69
2022/03/13 08:42:30;;;;;;;20.70;12.98;;;;;;;;;;5059727;28;20466;-69
2022/03/13 08:44:56;;;;;;;18.95;12.65;;;;;;;;;;5068288;28;20047;-69
2022/03/13 08:47:22;;;;;;;20.00;13.48;;;;;;;;;;5068509;28;20429;-69
2022/03/13 08:49:50;;;;;;;16.15;12.00;;;9.60;99.90;;;;;;5067969;28;20461;-69
2022/03/13 08:52:16;;;;;;;17.52;11.57;;;9.60;99.90;;;;;;5051499;28;20050;-69
2022/03/13 08:54:42;;;;;;;19.88;12.30;;;9.60;99.90;;;;;;5066247;28;20044;-70
2022/03/13 08:57:08;;;;;;;21.60;12.50;;;9.60;99.90;;;;;;5052467;28;20037;-70
2022/03/13 08:59:37;;;;;;;20.85;12.65;;;;;;;;;;5049094;28;20033;-70
2022/03/13 09:02:14;;;;;;;16.15;11.43;;;;;;;;;;5047230;28;20036;-71
2022/03/13 09:05:05;;;;;;;20.63;13.07;;;;;;;;;;5051102;28;20087;-71
2022/03/13 09:07:31;;;;;;;21.63;12.45;;;;;;;;;;5050383;28;20047;-70
2022/03/13 09:09:58;;;;;;;21.42;12.82;;;;;;;;;;5050015;28;20132;-70
2022/03/13 09:12:24;;;;;;;21.33;12.95;;;;;;;;;;5051095;28;20499;-70
2022/03/13 09:14:50;;;;;;;18.75;12.23;;;;;;;;;;5033947;28;20048;-70
2022/03/13 09:17:17;;;;;;;17.35;11.85;;;;;;;;;;5051216;28;20037;-71
2022/03/13 09:19:43;;;;;;;19.55;12.13;;;;;;;;;;5050252;28;20052;-70
2022/03/13 09:22:13;;;;;;;19.13;12.00;;;;;;;;;;5051142;28;20043;-70
2022/03/13 09:24:39;;;;;;;17.63;11.98;;;10.60;99.90;;;;;;5051033;28;20056;-70
2022/03/13 09:27:06;;;;;;;20.98;12.80;;;;;;;;;;5051230;28;20045;-71
2022/03/13 09:29:35;;;;;;;20.15;12.43;;;;;;;;;;5050297;28;20047;-70
2022/03/13 09:32:01;;;;;;;18.05;12.38;;;;;;;;;;5050732;28;20071;-70
2022/03/13 09:34:27;;;;;;;15.65;11.32;;;;;;;;;;5034188;28;20086;-71
2022/03/13 09:36:53;;;;;;;18.13;12.10;;;;;;;;;;5050786;28;20037;-71
2022/03/13 09:39:19;;;;;;;18.42;12.55;;;;;;;;;;5033713;28;20055;-70
2022/03/13 09:41:45;;;;;;;23.88;11.82;;;;;;;;;;5050929;28;20410;-70
2022/03/13 09:44:11;;;;;;;20.10;12.52;;;;;;;;;;5050643;28;20131;-71
2022/03/13 09:46:40;;;;;;;19.88;12.88;;;;;;;;;;5050631;28;20522;-71
2022/03/13 09:49:06;;;;;;;19.38;11.73;;;;;;;;;;5050516;28;20709;-71
2022/03/13 09:51:32;;;;;;;20.58;12.07;;;;;;;;;;5033897;28;20052;-71
2022/03/13 09:53:58;;;;;;;19.92;12.48;;;;;;;;;;5033927;28;20044;-71
2022/03/13 09:56:24;;;;;;;17.55;11.40;;;;;;;;;;5024943;28;20049;-71
2022/03/13 09:58:51;;;;;;;15.90;11.02;;;;;;;;;;5047472;28;20128;-71
2022/03/13 10:01:17;;;;;;;16.52;11.68;;;;;;;;;;5049899;28;20037;-71
2022/03/13 10:03:42;;;;;;;16.85;10.82;;;;;;;;;;5033813;28;20051;-71
2022/03/13 10:06:09;;;;;;;19.35;13.05;;;;;;;;;;5050370;28;20127;-71
2022/03/13 10:08:35;;;;;;;16.73;11.70;;;;;;;;;;5030651;28;20038;-71
2022/03/13 10:11:04;;;;;;;17.40;12.35;;;;;;;;;;5029730;28;20098;-70
2022/03/13 10:13:45;;;;;;;19.50;12.40;;;;;;;;;;5034508;28;20033;-70
2022/03/13 10:16:19;;;;;;;18.52;11.73;;;12.30;99.90;;;;;;5035720;28;20576;-70
2022/03/13 10:18:45;;;;;;;19.05;12.00;;;12.50;99.90;;;;;;5030176;28;20096;-71
2022/03/13 10:21:16;;;;;;;19.88;11.93;;;12.30;99.90;;;;;;5029890;28;20109;-71
2022/03/13 10:23:42;;;;;;;20.35;13.65;;;12.50;99.90;;;;;;5030197;28;20037;-71
2022/03/13 10:26:08;;;;;;;21.65;13.10;;;12.50;99.90;;;;;;5030240;28;20494;-71
2022/03/13 10:28:40;;;;;;;17.55;12.07;;;12.60;99.90;;;;;;5030508;28;20503;-71
2022/03/13 10:31:18;;;;;;;19.10;11.85;;;12.80;99.90;;;;;;5013788;28;20451;-71
2022/03/13 10:33:47;;;;;;;22.90;13.13;;;12.90;99.90;;;;;;5030192;28;20132;-72
2022/03/13 10:36:17;;;;;;;16.65;11.25;;;13.20;98.70;;;;;;5030325;28;21050;-72
2022/03/13 10:38:45;;;;;;;16.77;11.82;;;13.10;98.10;;;;;;5030208;28;20518;-72
2022/03/13 10:41:12;;;;;;;17.60;12.07;;;13.20;98.20;;;;;;5029864;28;20649;-71
2022/03/13 10:43:54;;;;;;;17.05;11.85;;;13.40;98.30;;;;;;5013550;28;20045;-72
2022/03/13 10:46:30;;;;;;;20.65;13.15;;;13.40;97.00;;;;;;5029945;28;20104;-72
2022/03/13 10:48:58;;;;;;;19.20;12.18;;;13.50;97.90;;;;;;5029814;28;20507;-71
2022/03/13 10:51:40;;;;;;;18.70;12.65;;;13.30;97.30;;;;;;5045624;28;20090;-71
2022/03/13 10:54:06;;;;;;;16.65;12.05;;;13.20;96.50;;;;;;5049835;28;20056;-71
2022/03/13 10:56:32;;;;;;;22.13;13.90;;;;;;;;;;5049346;28;20044;-71
2022/03/13 10:58:59;;;;;;;17.63;12.68;;;;;;;;;;5042163;28;20124;-71
2022/03/13 11:01:31;;;;;;;17.65;12.63;;;13.10;97.60;;;;;;5053223;28;20045;-71
2022/03/13 11:04:06;;;;;;;18.92;13.07;;;13.20;96.80;;;;;;5053384;28;20513;-70
2022/03/13 11:06:32;;;;;;;18.10;12.20;;;13.40;98.10;;;;;;5037089;28;20394;-71
2022/03/13 11:08:58;;;;;;;17.75;12.18;;;13.70;98.00;;;;;;5053121;28;20128;-71
2022/03/13 11:11:27;;;;;;;18.95;12.57;;;13.60;98.10;;;;;;5048186;28;20052;-71
2022/03/13 11:13:56;;;;;;;21.55;13.48;;;13.40;97.10;;;;;;5038936;28;20040;-71
2022/03/13 11:16:26;;;;;;;20.42;12.75;;;13.60;97.90;;;;;;5049291;28;20047;-71
2022/03/13 11:18:54;;;;;;;18.17;12.77;;;13.80;98.00;;;;;;5048297;28;20116;-71
2022/03/13 11:21:20;;;;;;;19.42;12.52;;;13.50;96.80;;;;;;5052985;28;20036;-71
2022/03/13 11:23:47;;;;;;;18.13;13.07;;;13.70;97.40;;;;;;5052869;28;20049;-73
2022/03/13 11:26:18;;;;;;;20.75;13.75;;;13.70;97.40;;;;;;5053094;28;20040;-72
2022/03/13 11:28:45;;;;;;;21.80;13.43;;;13.90;96.70;;;;;;5053084;28;20235;-72
2022/03/13 11:31:31;;;;;;;18.33;12.35;;;13.80;97.80;;;;;;5052640;28;20052;-71
2022/03/13 11:34:18;;;;;;;18.95;12.02;;;13.90;97.70;;;;;;5052782;28;20171;-72
2022/03/13 11:36:48;;;;;;;19.65;13.30;;;13.70;97.70;;;;;;5052966;28;20087;-71
2022/03/13 11:39:27;;;;;;;26.00;13.55;;;13.80;98.10;;;;;;5035819;28;20490;-71
2022/03/13 11:41:54;;;;;;;18.85;12.50;;;13.90;97.90;;;;;;5052692;28;20048;-72
2022/03/13 11:44:22;;;;;;;19.70;12.73;;;14.00;97.80;;;;;;5052854;28;20041;-71
2022/03/13 11:46:50;;;;;;;21.85;14.15;;;14.30;98.30;;;;;;5052868;28;20041;-72
2022/03/13 11:49:39;;;;;;;21.92;13.15;;;14.50;98.20;;;;;;5056579;28;20536;-71
2022/03/13 11:52:13;;;;;;;18.25;13.52;;;14.50;97.90;;;;;;5033143;28;20046;-72
2022/03/13 11:55:01;;;;;;;19.75;12.73;;;14.60;97.80;;;;;;5032844;28;20068;-71
2022/03/13 11:57:45;;;;;;;19.85;12.50;;;14.70;96.80;;;;;;5037863;28;20504;-69
2022/03/13 12:00:10;;;;;;;19.70;13.07;;;14.80;97.90;;;;;;5050746;28;20041;-71
2022/03/13 12:02:45;;;;;;;20.17;12.70;;;14.80;97.20;;;;;;5052195;28;20064;-71
2022/03/13 12:05:26;;;;;;;17.90;13.38;;;14.40;98.40;;;;;;5052251;28;20045;-71
2022/03/13 12:07:57;;;;;;;20.60;12.43;;;14.30;97.40;;;;;;5035731;28;20049;-71
2022/03/13 12:10:31;;;;;;;18.15;12.50;;;14.20;97.80;;;;;;5049028;28;20040;-70
2022/03/13 12:13:04;;;;;;;18.23;12.75;;;14.30;98.00;;;;;;5040146;28;20380;-70
2022/03/13 12:15:30;;;;;;;19.55;13.32;;;14.50;98.00;;;;;;5042989;28;20047;-70
2022/03/13 12:17:57;;;;;;;19.38;12.55;;;14.40;97.60;;;;;;5032369;28;20037;-71
2022/03/13 12:20:25;;;;;;;20.27;13.50;;;14.60;97.80;;;;;;5031763;28;20099;-71
2022/03/13 12:22:54;;;;;;;21.00;12.77;;;14.80;97.70;;;;;;5031977;28;20159;-71
2022/03/13 12:25:25;;;;;;;16.25;12.50;;;14.60;97.50;;;;;;5032393;28;20395;-71
2022/03/13 12:27:51;;;;;;;19.55;12.70;;;14.70;97.90;;;;;;5032125;28;20403;-71
2022/03/13 12:30:24;;;;;;;20.25;11.85;;;14.70;97.40;;;;;;5031669;28;20041;-70
2022/03/13 12:32:56;;;;;;;;;;;14.90;97.70;;;;;;5032505;28;20138;-71
2022/03/13 12:35:22;;;;;;;18.05;12.35;;;14.60;97.80;;;;;;5015838;28;19925;-71
2022/03/13 12:38:01;;;;;;;15.80;11.90;;;14.70;98.00;;;;;;5031917;28;20124;-70
2022/03/13 12:40:30;;;;;;;15.25;10.68;;;15.00;97.90;;;;;;5032238;28;20120;-70
2022/03/13 12:42:58;;;;;;;16.23;10.85;;;15.00;98.00;;;;;;5022744;28;20042;-71
2022/03/13 12:45:25;;;;;;;14.98;11.00;;;;;;;;;;5035948;28;20049;-71
2022/03/13 12:47:51;;;;;;;20.15;11.48;;;15.40;97.60;;;;;;5033857;28;20041;-71
2022/03/13 12:50:19;;;;;;;17.63;10.82;;;15.50;96.50;;;;;;5048945;28;20052;-71
2022/03/13 12:52:57;;;;;;;17.13;10.75;;;15.50;97.40;;;;;;5067679;28;20037;-72
2022/03/13 12:55:24;;;;;;;14.02;10.55;;;;;;;;;;5065978;28;20040;-72
2022/03/13 12:57:52;;;;;;;16.70;10.50;;;15.50;96.50;;;;;;5059545;28;20044;-71
2022/03/13 13:00:18;;;;;;;16.27;10.10;;;;;;;;;;5051349;28;20045;-71
2022/03/13 13:02:57;;;;;;;13.90;9.32;;;15.40;96.20;;;;;;5051432;28;20066;-71
2022/03/13 13:05:22;;;;;;;13.15;9.38;;;15.60;97.10;;;;;;5051606;28;20041;-71
2022/03/13 13:07:48;;;;;;;18.10;9.85;;;;;;;;;;5051182;28;20556;-71
2022/03/13 13:10:14;;;;;;;11.80;8.80;;;;;;;;;;5051077;28;20067;-71
2022/03/13 13:12:41;;;;;;;13.20;9.07;;;15.50;97.20;;;;;;5034415;28;20048;-71